Time;durP1;ratioP1;P1;durP2;ratioP2;P2;SDS_P1;SDS_P2;PMS_P1;PMS_P2;Temp;Humidity;BMP_temperature;BMP_pressure;BME280_temperature;BME280_humidity;BME280_pressure;Samples;Min_cycle;Max_cycle;Signal;HPM_P1;HPM_P2
2022/07/11 00:02:08;;;;;;;3.47;2.75;;;16.40;99.90;;;;;;4994428;28;20137;-45
2022/07/11 00:04:34;;;;;;;5.50;3.00;;;16.40;99.90;;;;;;4997270;28;20417;-44
2022/07/11 00:07:01;;;;;;;8.85;3.17;;;16.40;99.90;;;;;;5001819;28;20061;-45
2022/07/11 00:09:28;;;;;;;5.18;3.40;;;16.40;99.90;;;;;;4985947;28;20042;-44
2022/07/11 00:11:54;;;;;;;4.55;3.17;;;16.40;99.90;;;;;;4991015;28;20105;-44
2022/07/11 00:14:21;;;;;;;5.25;2.95;;;16.40;99.90;;;;;;4994929;28;20156;-45
2022/07/11 00:16:48;;;;;;;4.05;2.72;;;16.40;99.90;;;;;;4992060;28;20078;-47
2022/07/11 00:19:14;;;;;;;7.22;3.10;;;16.40;99.90;;;;;;4987324;28;20085;-44
2022/07/11 00:21:40;;;;;;;6.57;2.70;;;16.30;99.90;;;;;;5010870;28;20097;-46
2022/07/11 00:24:07;;;;;;;4.78;3.08;;;16.30;99.90;;;;;;5010265;28;20465;-44
2022/07/11 00:26:34;;;;;;;4.18;2.67;;;16.30;99.90;;;;;;4992181;28;20807;-46
2022/07/11 00:29:00;;;;;;;4.45;2.72;;;16.40;99.90;;;;;;5011579;28;20192;-44
2022/07/11 00:31:27;;;;;;;4.32;2.50;;;16.30;99.90;;;;;;5011093;28;20046;-46
2022/07/11 00:33:54;;;;;;;4.82;2.80;;;16.30;99.90;;;;;;5017478;28;20050;-46
2022/07/11 00:36:20;;;;;;;6.22;2.78;;;16.30;99.90;;;;;;5016786;28;20081;-45
2022/07/11 00:38:46;;;;;;;3.90;2.97;;;16.30;99.90;;;;;;4991028;28;20137;-44
2022/07/11 00:41:12;;;;;;;5.25;2.40;;;16.30;99.90;;;;;;4992710;28;20061;-46
2022/07/11 00:43:40;;;;;;;4.40;2.50;;;16.30;99.90;;;;;;5013600;28;20046;-44
2022/07/11 00:46:08;;;;;;;4.07;2.45;;;16.30;99.90;;;;;;5011399;28;20489;-45
2022/07/11 00:48:36;;;;;;;4.35;2.17;;;16.30;99.90;;;;;;5015507;28;20546;-44
2022/07/11 00:51:04;;;;;;;3.35;2.22;;;16.30;99.90;;;;;;5013680;28;20065;-46
2022/07/11 00:53:30;;;;;;;6.45;2.80;;;16.20;99.90;;;;;;5009303;28;20677;-49
2022/07/11 00:55:59;;;;;;;3.78;2.65;;;16.20;99.90;;;;;;5011828;28;20054;-44
2022/07/11 00:58:26;;;;;;;5.85;2.50;;;16.20;99.90;;;;;;5015990;28;20046;-48
2022/07/11 01:00:52;;;;;;;4.50;3.03;;;16.20;99.90;;;;;;5014160;28;20173;-45
2022/07/11 01:03:19;;;;;;;3.03;2.47;;;16.20;99.90;;;;;;5010139;28;20085;-44
2022/07/11 01:05:45;;;;;;;4.95;3.22;;;16.20;99.90;;;;;;5004940;28;20082;-47
2022/07/11 01:08:11;;;;;;;7.10;2.90;;;16.20;99.90;;;;;;4992662;28;20083;-46
2022/07/11 01:10:37;;;;;;;6.47;3.35;;;16.20;99.90;;;;;;5011964;28;20056;-46
2022/07/11 01:13:07;;;;;;;6.97;3.90;;;16.20;99.90;;;;;;5012040;28;20096;-49
2022/07/11 01:15:37;;;;;;;5.82;3.58;;;16.20;99.90;;;;;;5017821;28;20146;-45
2022/07/11 01:18:03;;;;;;;5.57;4.00;;;16.10;99.90;;;;;;5009906;28;20170;-45
2022/07/11 01:20:30;;;;;;;6.95;3.50;;;16.10;99.90;;;;;;5007592;28;20073;-44
2022/07/11 01:23:03;;;;;;;5.13;3.65;;;16.00;99.90;;;;;;5003841;28;20057;-45
2022/07/11 01:25:30;;;;;;;7.18;3.55;;;16.10;99.90;;;;;;5012523;28;20083;-44
2022/07/11 01:28:00;;;;;;;8.10;3.92;;;16.00;99.90;;;;;;5008637;28;20042;-45
2022/07/11 01:30:28;;;;;;;7.15;3.90;;;16.00;99.90;;;;;;4999493;28;20144;-45
2022/07/11 01:32:54;;;;;;;9.27;3.95;;;16.00;99.90;;;;;;4978010;28;20140;-45
2022/07/11 01:35:21;;;;;;;6.80;4.47;;;16.00;99.90;;;;;;5006514;28;20488;-46
2022/07/11 01:37:47;;;;;;;6.97;3.97;;;16.00;99.90;;;;;;5013303;28;20054;-44
2022/07/11 01:40:13;;;;;;;5.97;3.92;;;16.00;99.90;;;;;;5019345;28;20061;-44
2022/07/11 01:42:40;;;;;;;8.43;3.70;;;15.90;99.90;;;;;;5019550;28;20049;-44
2022/07/11 01:45:06;;;;;;;8.45;4.20;;;15.90;99.90;;;;;;5021328;28;20054;-48
2022/07/11 01:47:32;;;;;;;7.15;3.40;;;15.90;99.90;;;;;;5013297;28;20121;-44
2022/07/11 01:49:58;;;;;;;8.43;4.03;;;15.90;99.90;;;;;;5018212;28;20133;-45
2022/07/11 01:52:24;;;;;;;6.65;4.00;;;15.90;99.90;;;;;;5014695;28;20060;-44
2022/07/11 01:54:51;;;;;;;6.28;3.55;;;15.90;99.90;;;;;;4997269;28;20054;-43
2022/07/11 01:57:17;;;;;;;9.05;3.80;;;15.90;99.90;;;;;;5000295;28;20053;-45
2022/07/11 01:59:44;;;;;;;11.07;4.40;;;15.90;99.90;;;;;;5012319;28;20095;-44
2022/07/11 02:02:10;;;;;;;9.57;4.00;;;15.90;99.90;;;;;;4996471;28;20046;-44
2022/07/11 02:04:36;;;;;;;10.85;4.15;;;15.90;99.90;;;;;;5018117;28;20056;-45
2022/07/11 02:07:02;;;;;;;8.38;4.18;;;16.00;99.90;;;;;;5008267;28;20412;-48
2022/07/11 02:09:28;;;;;;;11.65;4.32;;;15.90;99.90;;;;;;5015334;28;20054;-44
2022/07/11 02:11:53;;;;;;;8.57;3.63;;;15.90;99.90;;;;;;5012453;28;20683;-45
2022/07/11 02:14:19;;;;;;;8.05;3.90;;;15.90;99.90;;;;;;4997922;28;20053;-44
2022/07/11 02:16:45;;;;;;;9.63;4.20;;;15.90;99.90;;;;;;5007036;28;20049;-45
2022/07/11 02:19:11;;;;;;;7.05;4.20;;;15.90;99.90;;;;;;5013815;28;20108;-44
2022/07/11 02:21:37;;;;;;;7.95;4.57;;;15.80;99.90;;;;;;4980645;28;20053;-45
2022/07/11 02:24:03;;;;;;;7.13;4.13;;;15.90;99.90;;;;;;5008705;28;20053;-47
2022/07/11 02:26:29;;;;;;;8.00;4.82;;;15.90;99.90;;;;;;5013013;28;20075;-45
2022/07/11 02:28:55;;;;;;;8.07;4.40;;;15.90;99.90;;;;;;5011910;28;20049;-46
2022/07/11 02:31:21;;;;;;;9.93;4.75;;;15.90;99.90;;;;;;5008045;28;20265;-45
2022/07/11 02:33:47;;;;;;;7.55;4.50;;;15.90;99.90;;;;;;5016164;28;20049;-46
2022/07/11 02:36:13;;;;;;;10.23;4.07;;;15.90;99.90;;;;;;5014631;28;20511;-47
2022/07/11 02:38:40;;;;;;;5.80;4.13;;;15.90;99.90;;;;;;5006153;28;20110;-44
2022/07/11 02:41:05;;;;;;;7.90;4.78;;;15.90;99.90;;;;;;5017010;28;20088;-44
2022/07/11 02:43:32;;;;;;;7.75;4.50;;;15.90;99.90;;;;;;4972788;28;20082;-47
2022/07/11 02:45:57;;;;;;;8.77;4.72;;;15.90;99.90;;;;;;5007732;28;20096;-45
2022/07/11 02:48:23;;;;;;;10.32;4.82;;;15.90;99.90;;;;;;5005080;28;20133;-44
2022/07/11 02:50:49;;;;;;;6.65;4.60;;;15.90;99.90;;;;;;4996720;28;20493;-44
2022/07/11 02:53:15;;;;;;;8.68;4.72;;;15.80;99.90;;;;;;4995517;28;20054;-45
2022/07/11 02:55:41;;;;;;;10.45;4.82;;;15.90;99.90;;;;;;4998983;28;20049;-46
2022/07/11 02:58:08;;;;;;;6.32;4.18;;;15.90;99.90;;;;;;4986495;28;20425;-45
2022/07/11 03:00:35;;;;;;;8.93;4.22;;;15.90;99.90;;;;;;4990898;28;20081;-44
2022/07/11 03:03:01;;;;;;;7.20;4.38;;;15.80;99.90;;;;;;4984043;28;20058;-45
2022/07/11 03:05:27;;;;;;;5.85;4.40;;;15.90;99.90;;;;;;4992912;28;20046;-46
2022/07/11 03:07:53;;;;;;;5.70;3.70;;;15.80;99.90;;;;;;4992504;28;20544;-46
2022/07/11 03:10:19;;;;;;;5.57;4.05;;;15.90;99.90;;;;;;4993114;28;20125;-44
2022/07/11 03:12:45;;;;;;;6.05;4.10;;;15.80;99.90;;;;;;4998368;28;20050;-47
2022/07/11 03:15:11;;;;;;;7.07;3.75;;;15.80;99.90;;;;;;4993460;28;20405;-44
2022/07/11 03:17:38;;;;;;;6.90;3.88;;;15.80;99.90;;;;;;4992645;28;20525;-45
2022/07/11 03:20:07;;;;;;;5.50;3.58;;;15.90;99.90;;;;;;4990817;28;20045;-45
2022/07/11 03:22:33;;;;;;;5.20;3.45;;;15.80;99.90;;;;;;4991368;28;20053;-46
2022/07/11 03:25:00;;;;;;;4.18;3.08;;;15.80;99.90;;;;;;4998448;28;20065;-46
2022/07/11 03:27:26;;;;;;;8.45;3.45;;;15.80;99.90;;;;;;5003469;28;20046;-45
2022/07/11 03:29:52;;;;;;;5.05;3.47;;;15.80;99.90;;;;;;4998254;28;20068;-46
2022/07/11 03:32:22;;;;;;;5.97;2.75;;;15.80;99.90;;;;;;4991614;28;20489;-45
2022/07/11 03:35:40;;;;;;;3.72;2.60;;;15.80;99.90;;;;;;4999711;28;20045;-46
2022/07/11 03:37:34;;;;;;;6.03;2.70;;;15.80;99.90;;;;;;4993760;28;20050;-47
2022/07/11 03:40:00;;;;;;;2.58;2.38;;;15.80;99.90;;;;;;4996992;28;20061;-48
2022/07/11 03:42:26;;;;;;;5.88;2.67;;;15.80;99.90;;;;;;4995618;28;20057;-48
2022/07/11 03:44:52;;;;;;;4.45;3.00;;;15.70;99.90;;;;;;5002127;28;20050;-45
2022/07/11 03:47:19;;;;;;;4.72;2.70;;;15.70;99.90;;;;;;4992798;28;20149;-44
2022/07/11 03:49:47;;;;;;;5.05;2.88;;;15.70;99.90;;;;;;4994875;28;20065;-44
2022/07/11 03:52:13;;;;;;;5.68;2.80;;;15.70;99.90;;;;;;5017068;28;20124;-43
2022/07/11 03:54:39;;;;;;;6.43;3.17;;;15.80;99.90;;;;;;4980393;28;20054;-44
2022/07/11 03:57:06;;;;;;;4.35;3.05;;;15.80;99.90;;;;;;5012038;28;20056;-46
2022/07/11 03:59:32;;;;;;;4.57;2.97;;;15.80;99.90;;;;;;5011707;28;20046;-46
2022/07/11 04:01:58;;;;;;;6.28;2.80;;;15.80;99.90;;;;;;4992734;28;20054;-44
2022/07/11 04:04:24;;;;;;;4.03;3.10;;;15.80;99.90;;;;;;4996288;28;20160;-46
2022/07/11 04:06:50;;;;;;;4.13;3.05;;;15.80;99.90;;;;;;5024712;28;20107;-44
2022/07/11 04:09:16;;;;;;;5.30;2.72;;;15.80;99.90;;;;;;5011131;28;20046;-45
2022/07/11 04:11:42;;;;;;;7.00;2.92;;;15.80;99.90;;;;;;5012757;28;20163;-47
2022/07/11 04:14:08;;;;;;;4.75;2.80;;;15.80;99.90;;;;;;5017642;28;20128;-47
2022/07/11 04:16:34;;;;;;;5.32;2.42;;;15.80;99.90;;;;;;5010509;28;20140;-45
2022/07/11 04:19:00;;;;;;;3.72;2.65;;;15.80;99.90;;;;;;5005385;28;20060;-45
2022/07/11 04:21:26;;;;;;;7.18;2.95;;;15.90;99.90;;;;;;5006306;28;20050;-44
2022/07/11 04:23:52;;;;;;;5.38;3.17;;;15.80;99.90;;;;;;4987223;28;20128;-45
2022/07/11 04:26:18;;;;;;;3.70;2.75;;;15.80;99.90;;;;;;4989542;28;20501;-45
2022/07/11 04:28:44;;;;;;;5.22;2.72;;;15.90;99.90;;;;;;5021047;28;20048;-44
2022/07/11 04:31:11;;;;;;;5.88;3.22;;;15.90;99.90;;;;;;4998480;28;20061;-44
2022/07/11 04:33:37;;;;;;;4.45;2.90;;;15.90;99.90;;;;;;5010091;28;20527;-46
2022/07/11 04:36:03;;;;;;;7.07;2.88;;;16.00;99.90;;;;;;4992461;28;20145;-45
2022/07/11 04:38:29;;;;;;;5.63;2.95;;;16.00;99.90;;;;;;5009085;28;20045;-44
2022/07/11 04:40:55;;;;;;;3.72;2.90;;;16.00;99.90;;;;;;5013092;28;20048;-45
2022/07/11 04:43:21;;;;;;;5.82;2.83;;;16.00;99.90;;;;;;5011596;28;20137;-45
2022/07/11 04:45:47;;;;;;;4.25;2.90;;;16.10;99.90;;;;;;5011085;28;20096;-46
2022/07/11 04:48:13;;;;;;;6.32;2.45;;;16.10;99.90;;;;;;5016379;28;20053;-44
2022/07/11 04:50:42;;;;;;;3.40;2.40;;;16.10;99.90;;;;;;5014193;28;20567;-45
2022/07/11 04:53:08;;;;;;;3.13;2.03;;;16.10;99.90;;;;;;5016514;28;20057;-46
2022/07/11 04:55:37;;;;;;;3.72;2.00;;;16.20;99.90;;;;;;4996533;28;20119;-48
2022/07/11 04:58:06;;;;;;;2.38;1.70;;;16.20;99.90;;;;;;4977730;28;20061;-47
2022/07/11 05:00:32;;;;;;;2.97;1.60;;;16.20;99.90;;;;;;4999839;28;20057;-46
2022/07/11 05:02:58;;;;;;;2.10;1.55;;;16.20;99.90;;;;;;5007411;28;20057;-43
2022/07/11 05:05:24;;;;;;;1.85;1.35;;;16.30;99.90;;;;;;5017195;28;20042;-44
2022/07/11 05:07:50;;;;;;;2.30;1.65;;;16.30;99.90;;;;;;5009703;28;20146;-46
2022/07/11 05:10:15;;;;;;;3.95;1.73;;;16.30;99.90;;;;;;5013554;28;20120;-44
2022/07/11 05:12:41;;;;;;;3.88;2.05;;;16.30;99.90;;;;;;5017985;28;20084;-44
2022/07/11 05:15:08;;;;;;;2.83;1.85;;;16.30;99.90;;;;;;5010959;28;20088;-46
2022/07/11 05:17:34;;;;;;;2.78;1.95;;;16.30;99.90;;;;;;5018833;28;20069;-46
2022/07/11 05:20:03;;;;;;;3.80;1.92;;;16.30;99.90;;;;;;5014079;28;20572;-44
2022/07/11 05:22:29;;;;;;;3.10;1.90;;;16.40;99.90;;;;;;5014517;28;20493;-45
2022/07/11 05:24:55;;;;;;;3.22;1.58;;;16.30;99.90;;;;;;4997197;28;20069;-44
2022/07/11 05:27:21;;;;;;;3.55;1.70;;;16.30;99.90;;;;;;5019198;28;20057;-44
2022/07/11 05:29:47;;;;;;;4.75;1.92;;;16.40;99.90;;;;;;5002052;28;20061;-45
2022/07/11 05:32:13;;;;;;;2.50;1.73;;;16.20;99.90;;;;;;5003550;28;20465;-45
2022/07/11 05:34:39;;;;;;;2.83;1.63;;;16.20;99.90;;;;;;5018544;28;20053;-46
2022/07/11 05:37:05;;;;;;;4.72;1.80;;;16.30;99.90;;;;;;4994878;28;20069;-45
2022/07/11 05:39:31;;;;;;;2.65;1.80;;;16.30;99.90;;;;;;4995432;28;20068;-44
2022/07/11 05:41:57;;;;;;;2.53;1.48;;;16.30;99.90;;;;;;5018296;28;20212;-44
2022/07/11 05:44:23;;;;;;;2.55;1.23;;;16.30;99.90;;;;;;5020231;28;20060;-46
2022/07/11 05:46:49;;;;;;;5.20;1.50;;;16.30;99.90;;;;;;5013233;28;20049;-46
2022/07/11 05:49:16;;;;;;;2.00;1.42;;;16.30;99.90;;;;;;5020232;28;20045;-44
2022/07/11 05:51:41;;;;;;;2.63;1.13;;;16.30;99.90;;;;;;5013881;28;20061;-45
2022/07/11 05:54:07;;;;;;;2.47;1.10;;;16.20;99.90;;;;;;5000037;28;20049;-45
2022/07/11 05:56:33;;;;;;;2.15;1.13;;;16.20;99.90;;;;;;5012470;28;20046;-44
2022/07/11 05:58:59;;;;;;;3.38;1.27;;;16.30;99.90;;;;;;5010737;28;20061;-45
2022/07/11 06:01:26;;;;;;;2.22;1.13;;;16.30;99.90;;;;;;5019200;28;20839;-46
2022/07/11 06:03:52;;;;;;;2.35;1.20;;;16.30;99.90;;;;;;4994339;28;20037;-48
2022/07/11 06:06:18;;;;;;;2.45;1.10;;;16.40;99.90;;;;;;4995514;28;20072;-46
2022/07/11 06:08:44;;;;;;;3.45;1.20;;;16.50;99.90;;;;;;5020050;28;20252;-47
2022/07/11 06:11:12;;;;;;;3.03;1.27;;;16.50;99.90;;;;;;5019925;28;20094;-47
2022/07/11 06:13:48;;;;;;;2.60;1.40;;;16.50;99.90;;;;;;5008156;28;20066;-45
2022/07/11 06:16:14;;;;;;;3.25;1.25;;;16.70;99.90;;;;;;5000834;28;20041;-46
2022/07/11 06:18:40;;;;;;;2.90;1.25;;;16.80;99.90;;;;;;5007811;28;20072;-47
2022/07/11 06:21:08;;;;;;;2.80;1.15;;;17.10;99.90;;;;;;5002835;28;20128;-48
2022/07/11 06:23:37;;;;;;;1.92;1.02;;;17.60;99.90;;;;;;5019397;28;20488;-45
2022/07/11 06:26:11;;;;;;;3.08;1.25;;;17.80;99.90;;;;;;5008740;28;20563;-46
2022/07/11 06:28:39;;;;;;;3.53;1.17;;;17.90;99.90;;;;;;4995936;28;20053;-46
2022/07/11 06:31:08;;;;;;;1.98;0.95;;;17.90;99.90;;;;;;5010163;28;20514;-46
2022/07/11 06:33:35;;;;;;;4.38;1.00;;;17.70;99.90;;;;;;5009815;28;20085;-44
2022/07/11 06:36:01;;;;;;;3.38;0.90;;;17.70;99.90;;;;;;5013013;28;20061;-44
2022/07/11 06:38:28;;;;;;;2.15;1.10;;;17.70;99.90;;;;;;5022725;28;20571;-45
2022/07/11 06:40:54;;;;;;;2.05;0.90;;;17.90;99.90;;;;;;5014222;28;20657;-45
2022/07/11 06:43:21;;;;;;;2.38;1.00;;;18.00;99.90;;;;;;5016921;28;20054;-45
2022/07/11 06:45:47;;;;;;;2.40;1.00;;;18.10;99.90;;;;;;5014973;28;20048;-45
2022/07/11 06:48:13;;;;;;;0.98;0.82;;;18.20;99.90;;;;;;5012908;28;20054;-46
2022/07/11 06:50:40;;;;;;;2.08;1.02;;;18.20;99.90;;;;;;4993878;28;20529;-45
2022/07/11 06:53:06;;;;;;;1.30;1.00;;;18.10;99.90;;;;;;4997313;28;20535;-46
2022/07/11 06:55:33;;;;;;;3.45;1.10;;;18.30;99.90;;;;;;4999853;28;20041;-47
2022/07/11 06:58:00;;;;;;;2.65;0.90;;;18.40;99.90;;;;;;4993226;28;20746;-47
2022/07/11 07:00:27;;;;;;;2.10;1.10;;;18.30;99.90;;;;;;4991657;28;20171;-48
2022/07/11 07:02:56;;;;;;;1.67;0.77;;;18.20;99.90;;;;;;4992795;28;20050;-46
2022/07/11 07:05:24;;;;;;;1.88;0.60;;;18.10;99.90;;;;;;5000422;28;20050;-47
2022/07/11 07:07:53;;;;;;;0.57;0.50;;;18.10;99.90;;;;;;5003509;28;20046;-47
2022/07/11 07:10:19;;;;;;;1.60;0.60;;;18.10;99.90;;;;;;4992669;28;20081;-45
2022/07/11 07:12:45;;;;;;;1.73;0.90;;;17.90;99.90;;;;;;5003294;28;20081;-45
2022/07/11 07:15:12;;;;;;;1.65;1.05;;;17.90;99.90;;;;;;4991462;28;20065;-46
2022/07/11 07:17:38;;;;;;;1.85;0.90;;;18.10;99.90;;;;;;4999489;28;20093;-45
2022/07/11 07:20:08;;;;;;;1.08;0.60;;;18.60;99.90;;;;;;4992497;28;20153;-48
2022/07/11 07:22:35;;;;;;;2.67;0.65;;;19.00;99.90;;;;;;4986773;28;20082;-47
2022/07/11 07:25:00;;;;;;;2.55;0.93;;;19.40;99.90;;;;;;4999101;28;20054;-46
2022/07/11 07:27:36;;;;;;;1.23;0.65;;;19.60;99.90;;;;;;4992296;28;20518;-47
2022/07/11 07:30:02;;;;;;;0.60;0.50;;;20.00;99.90;;;;;;4988136;28;20053;-46
2022/07/11 07:32:29;;;;;;;1.42;0.73;;;20.30;99.90;;;;;;4990640;28;20444;-49
2022/07/11 07:34:54;;;;;;;0.73;0.60;;;20.60;99.90;;;;;;4998261;28;20033;-46
2022/07/11 07:37:20;;;;;;;0.82;0.60;;;20.50;99.90;;;;;;4992355;28;20053;-46
2022/07/11 07:39:46;;;;;;;1.08;0.80;;;20.10;99.90;;;;;;4991301;28;20115;-47
2022/07/11 07:42:12;;;;;;;3.47;1.08;;;19.90;99.90;;;;;;4989910;28;20050;-46
2022/07/11 07:44:39;;;;;;;2.50;1.10;;;19.50;99.90;;;;;;4990502;28;20126;-45
2022/07/11 07:47:08;;;;;;;1.35;0.90;;;19.20;99.90;;;;;;4981672;28;20050;-45
2022/07/11 07:49:33;;;;;;;1.00;1.00;;;19.20;99.90;;;;;;4999142;28;20052;-47
2022/07/11 07:51:59;;;;;;;0.93;0.60;;;19.20;99.90;;;;;;5001909;28;20436;-45
2022/07/11 07:54:25;;;;;;;1.05;0.65;;;19.40;99.90;;;;;;5020223;28;20057;-46
2022/07/11 07:56:51;;;;;;;0.93;0.60;;;19.80;99.90;;;;;;5014680;28;20083;-48
2022/07/11 07:59:17;;;;;;;0.47;0.43;;;20.30;99.90;;;;;;5017906;28;20073;-45
2022/07/11 08:01:45;;;;;;;0.82;0.50;;;20.80;99.90;;;;;;5006735;28;20053;-47
2022/07/11 08:04:11;;;;;;;1.00;0.60;;;20.90;99.90;;;;;;5001700;28;20041;-46
2022/07/11 08:06:38;;;;;;;1.58;0.47;;;20.70;99.90;;;;;;5014142;28;20225;-46
2022/07/11 08:09:05;;;;;;;0.63;0.50;;;20.50;99.90;;;;;;5016099;28;20145;-46
2022/07/11 08:11:33;;;;;;;0.88;0.50;;;20.30;99.90;;;;;;5012875;28;20050;-46
2022/07/11 08:13:59;;;;;;;2.03;0.60;;;20.10;99.90;;;;;;5014741;28;20385;-45
2022/07/11 08:16:24;;;;;;;1.02;0.50;;;20.00;99.90;;;;;;4990347;28;20515;-45
2022/07/11 08:18:53;;;;;;;1.30;0.65;;;20.00;99.90;;;;;;4999821;28;20061;-45
2022/07/11 08:21:18;;;;;;;1.85;0.60;;;20.00;99.90;;;;;;4987105;28;20711;-45
2022/07/11 08:23:44;;;;;;;1.92;0.88;;;20.30;99.90;;;;;;5019757;28;20045;-46
2022/07/11 08:26:16;;;;;;;0.63;0.50;;;20.60;99.90;;;;;;5006459;28;20115;-45
2022/07/11 08:28:42;;;;;;;1.27;0.70;;;20.80;99.90;;;;;;4994145;28;20075;-48
2022/07/11 08:31:08;;;;;;;0.70;0.55;;;20.70;99.90;;;;;;5015113;28;20103;-46
2022/07/11 08:33:34;;;;;;;0.30;0.30;;;20.50;99.90;;;;;;4992694;28;20504;-47
2022/07/11 08:36:00;;;;;;;0.52;0.45;;;20.30;99.90;;;;;;4997586;28;20061;-45
2022/07/11 08:38:26;;;;;;;1.25;0.50;;;20.10;99.90;;;;;;5019899;28;20041;-45
2022/07/11 08:40:52;;;;;;;0.43;0.38;;;20.00;99.90;;;;;;5014068;28;20053;-47
2022/07/11 08:43:23;;;;;;;0.60;0.45;;;20.20;99.90;;;;;;5017707;28;20076;-45
2022/07/11 08:45:50;;;;;;;0.40;0.40;;;20.30;99.90;;;;;;4996937;28;20061;-47
2022/07/11 08:48:16;;;;;;;0.35;0.35;;;20.30;99.90;;;;;;5013242;28;20112;-46
2022/07/11 08:50:42;;;;;;;1.15;0.60;;;20.30;99.90;;;;;;5019151;28;20053;-44
2022/07/11 08:53:10;;;;;;;0.70;0.43;;;20.30;99.90;;;;;;5011279;28;20489;-47
2022/07/11 08:55:36;;;;;;;0.40;0.40;;;20.40;99.90;;;;;;5011668;28;20137;-46
2022/07/11 08:58:02;;;;;;;0.73;0.40;;;20.50;99.90;;;;;;5017026;28;20563;-46
2022/07/11 09:00:28;;;;;;;1.40;0.40;;;20.60;99.90;;;;;;5013709;28;20051;-46
2022/07/11 09:02:54;;;;;;;0.60;0.43;;;20.60;99.90;;;;;;5013547;28;20049;-45
2022/07/11 09:05:21;;;;;;;1.05;0.50;;;20.50;99.90;;;;;;4995147;28;20061;-45
2022/07/11 09:07:49;;;;;;;0.30;0.30;;;20.40;99.90;;;;;;4999986;28;20063;-45
2022/07/11 09:10:16;;;;;;;0.68;0.50;;;20.40;99.90;;;;;;5017209;28;20049;-47
2022/07/11 09:13:16;;;;;;;1.30;0.40;;;20.30;99.90;;;;;;5010969;28;20049;-47
2022/07/11 09:15:44;;;;;;;0.73;0.50;;;20.30;99.90;;;;;;4964135;28;20094;-45
2022/07/11 09:18:28;;;;;;;0.60;0.40;;;20.30;99.90;;;;;;4981016;28;20062;-45
2022/07/11 09:26:34;;;;;;;3.45;0.82;;;20.70;99.90;;;;;;4984114;28;20122;-46
2022/07/11 09:29:03;;;;;;;1.00;0.70;;;20.80;99.90;;;;;;4958383;28;20077;-45
2022/07/11 09:31:31;;;;;;;0.68;0.52;;;20.90;99.90;;;;;;4965953;28;20562;-45
2022/07/11 09:33:58;;;;;;;0.70;0.70;;;20.80;99.90;;;;;;4967396;28;20050;-46
2022/07/11 09:36:40;;;;;;;1.67;0.60;;;20.80;99.90;;;;;;4971789;28;20058;-47
2022/07/11 09:39:08;;;;;;;0.85;0.50;;;20.70;99.90;;;;;;4971997;28;20065;-48
2022/07/11 09:41:36;;;;;;;1.15;0.70;;;20.80;99.90;;;;;;4968554;28;20046;-47
2022/07/11 09:44:18;;;;;;;3.63;1.02;;;20.80;99.90;;;;;;4975055;28;20434;-46
2022/07/11 09:46:46;;;;;;;2.30;0.90;;;20.70;99.90;;;;;;4975505;28;20046;-47
2022/07/11 09:49:13;;;;;;;1.52;0.80;;;20.80;99.90;;;;;;4971772;28;20078;-47
2022/07/11 09:51:39;;;;;;;0.50;0.50;;;20.80;99.90;;;;;;5003962;28;20076;-46
2022/07/11 09:54:07;;;;;;;0.60;0.60;;;20.80;99.90;;;;;;5014797;28;20142;-45
2022/07/11 09:56:51;;;;;;;1.13;0.68;;;20.80;99.90;;;;;;5013176;28;20060;-47
2022/07/11 09:59:18;;;;;;;1.23;0.60;;;20.70;99.90;;;;;;5007828;28;20327;-49
2022/07/11 10:01:50;;;;;;;1.00;0.50;;;20.80;99.90;;;;;;5015424;28;20099;-46
2022/07/11 10:04:16;;;;;;;2.10;0.90;;;20.90;99.90;;;;;;4999349;28;20052;-48
2022/07/11 10:06:57;;;;;;;0.55;0.50;;;21.10;99.90;;;;;;5002415;28;20057;-45
2022/07/11 10:09:22;;;;;;;0.40;0.40;;;21.30;99.90;;;;;;4997205;28;20062;-46
2022/07/11 10:11:48;;;;;;;0.82;0.50;;;21.50;99.90;;;;;;4995334;28;20049;-47
2022/07/11 10:14:15;;;;;;;0.40;0.40;;;21.60;99.90;;;;;;4990912;28;20058;-44
2022/07/11 10:17:02;;;;;;;0.77;0.50;;;21.80;99.90;;;;;;4996226;28;20066;-45
2022/07/11 10:19:47;;;;;;;0.52;0.50;;;21.90;99.90;;;;;;4997215;28;20064;-46
2022/07/11 10:22:37;;;;;;;0.65;0.50;;;21.90;99.90;;;;;;4992907;28;20065;-45
2022/07/11 10:25:09;;;;;;;0.50;0.50;;;21.90;99.90;;;;;;5017365;28;20076;-46
2022/07/11 10:28:09;;;;;;;1.00;0.73;;;21.90;99.90;;;;;;5006407;28;20053;-45
2022/07/11 10:30:47;;;;;;;1.15;0.73;;;21.80;99.90;;;;;;5019292;28;20512;-46
2022/07/11 10:33:18;;;;;;;1.67;0.60;;;21.90;99.90;;;;;;4999374;28;20049;-45
2022/07/11 10:35:50;;;;;;;1.05;0.50;;;21.80;99.90;;;;;;4989603;28;20058;-46
2022/07/11 10:38:17;;;;;;;1.35;0.60;;;21.90;99.90;;;;;;5010908;28;20054;-45
2022/07/11 10:40:57;;;;;;;0.70;0.55;;;21.90;99.90;;;;;;5022547;28;20058;-46
2022/07/11 10:43:29;;;;;;;0.60;0.60;;;22.10;99.90;;;;;;4995717;28;20128;-46
2022/07/11 10:46:06;;;;;;;1.38;0.70;;;22.00;99.90;;;;;;5017463;28;20053;-45
2022/07/11 10:48:34;;;;;;;1.17;1.00;;;22.10;99.90;;;;;;5006529;28;20046;-48
2022/07/11 10:51:21;;;;;;;2.88;1.52;;;22.10;99.90;;;;;;5013277;28;20058;-48
2022/07/11 10:53:50;;;;;;;3.45;1.10;;;22.10;99.90;;;;;;4998223;28;20738;-47
2022/07/11 10:56:41;;;;;;;1.90;0.85;;;22.00;99.90;;;;;;5014259;28;20057;-45
2022/07/11 10:59:15;;;;;;;0.70;0.70;;;21.90;99.90;;;;;;4997438;28;20776;-46
2022/07/11 11:02:05;;;;;;;1.75;0.70;;;21.70;99.90;;;;;;5015808;28;20178;-46
2022/07/11 11:05:04;;;;;;;1.85;0.90;;;21.60;99.90;;;;;;5012461;28;20182;-46
2022/07/11 11:07:45;;;;;;;2.22;1.15;;;21.50;99.90;;;;;;4915982;29;20143;-47
2022/07/11 11:10:28;;;;;;;1.08;0.80;;;21.50;99.90;;;;;;4923043;29;20182;-48
2022/07/11 11:13:06;;;;;;;2.35;1.02;;;21.50;99.90;;;;;;4913696;29;20047;-48
2022/07/11 11:15:45;;;;;;;12.60;4.85;;;21.40;99.90;;;;;;4921451;29;20047;-46
2022/07/11 11:18:25;;;;;;;8.23;3.75;;;21.30;99.90;;;;;;4918866;29;20096;-46
2022/07/11 11:21:03;;;;;;;28.58;11.13;;;21.30;99.90;;;;;;4917838;29;20059;-45
2022/07/11 11:23:34;;;;;;;3.88;2.58;;;21.20;99.90;;;;;;4921123;29;20568;-44
2022/07/11 11:26:05;;;;;;;1.60;1.00;;;21.20;99.90;;;;;;4922128;29;20665;-51
2022/07/11 11:28:32;;;;;;;2.00;0.80;;;21.20;99.90;;;;;;4923342;29;20071;-49
2022/07/11 11:31:07;;;;;;;1.25;0.73;;;21.30;99.90;;;;;;4920786;29;20063;-46
2022/07/11 11:33:36;;;;;;;2.78;1.00;;;21.40;99.90;;;;;;4921181;29;20267;-46
2022/07/11 11:36:01;;;;;;;2.60;1.40;;;21.50;99.90;;;;;;4912659;29;20071;-46
2022/07/11 11:38:29;;;;;;;0.82;0.82;;;21.60;99.90;;;;;;4922731;29;20067;-46
2022/07/11 11:40:55;;;;;;;2.42;1.00;;;21.80;99.90;;;;;;4918764;29;20748;-45
2022/07/11 11:43:22;;;;;;;1.52;0.80;;;21.80;99.90;;;;;;4957033;28;20058;-45
2022/07/11 11:45:53;;;;;;;2.25;0.85;;;21.90;99.90;;;;;;5013308;28;20049;-44
2022/07/11 11:48:32;;;;;;;0.60;0.57;;;21.90;99.90;;;;;;5006519;28;20052;-45
2022/07/11 11:51:05;;;;;;;1.00;0.70;;;22.00;99.90;;;;;;5010334;28;20559;-46
2022/07/11 11:53:49;;;;;;;1.05;0.70;;;22.00;99.90;;;;;;5015727;28;20061;-44
2022/07/11 11:56:30;;;;;;;1.92;0.90;;;22.00;99.90;;;;;;5005060;28;20057;-44
2022/07/11 11:59:01;;;;;;;3.95;0.93;;;22.00;99.90;;;;;;5009406;28;20060;-44
2022/07/11 12:01:29;;;;;;;3.58;1.13;;;22.00;99.90;;;;;;4994348;28;20051;-45
2022/07/11 12:03:56;;;;;;;2.65;0.95;;;21.90;99.90;;;;;;4996083;28;20153;-44
2022/07/11 12:06:41;;;;;;;4.05;1.10;;;21.90;99.90;;;;;;5009413;28;20152;-45
2022/07/11 12:09:11;;;;;;;1.70;0.90;;;21.90;99.90;;;;;;5005714;28;20041;-46
2022/07/11 12:11:38;;;;;;;3.42;2.10;;;21.80;99.90;;;;;;5004380;28;20831;-45
2022/07/11 12:14:07;;;;;;;1.08;0.80;;;21.80;99.90;;;;;;5017922;28;20500;-44
2022/07/11 12:16:46;;;;;;;1.00;0.80;;;21.80;99.90;;;;;;5015072;28;20100;-45
2022/07/11 12:19:22;;;;;;;2.47;0.90;;;21.80;99.90;;;;;;5007627;28;20133;-45
2022/07/11 12:21:50;;;;;;;1.05;0.95;;;21.80;99.90;;;;;;5005140;28;20058;-46
2022/07/11 12:24:26;;;;;;;2.17;1.00;;;21.80;99.90;;;;;;5013130;28;20623;-45
2022/07/11 12:26:53;;;;;;;1.30;0.80;;;21.90;99.90;;;;;;5015789;28;20056;-46
2022/07/11 12:29:24;;;;;;;0.70;0.70;;;22.00;99.90;;;;;;5004495;28;20046;-44
2022/07/11 12:31:53;;;;;;;1.67;0.70;;;22.20;99.90;;;;;;5012379;28;20049;-46
2022/07/11 12:34:27;;;;;;;0.80;0.70;;;22.20;99.90;;;;;;4992182;28;20066;-46
2022/07/11 12:37:02;;;;;;;2.08;0.68;;;22.30;99.90;;;;;;5004915;28;20057;-46
2022/07/11 12:39:30;;;;;;;1.30;0.60;;;22.20;99.90;;;;;;5022620;28;20068;-48
2022/07/11 12:41:58;;;;;;;1.52;0.60;;;22.10;99.90;;;;;;5019859;28;20095;-45
2022/07/11 12:47:16;;;;;;;2.47;1.05;;;21.90;99.90;;;;;;5013898;28;20060;-48
2022/07/11 12:49:46;;;;;;;2.35;1.10;;;21.90;99.90;;;;;;4996698;28;20050;-47
2022/07/11 12:52:13;;;;;;;3.28;1.00;;;21.90;99.90;;;;;;5014889;28;20598;-47
2022/07/11 12:54:39;;;;;;;1.50;1.00;;;21.90;99.90;;;;;;5011423;28;20053;-48
2022/07/11 12:57:10;;;;;;;1.02;0.90;;;21.90;99.90;;;;;;4999936;28;20071;-46
2022/07/11 12:59:40;;;;;;;1.50;1.10;;;21.90;99.90;;;;;;5012550;28;20054;-46
2022/07/11 13:02:11;;;;;;;2.03;1.30;;;21.90;99.90;;;;;;5010437;28;20127;-47